Time;durP1;ratioP1;P1;durP2;ratioP2;P2;SDS_P1;SDS_P2;PMS_P1;PMS_P2;Temp;Humidity;BMP_temperature;BMP_pressure;BME280_temperature;BME280_humidity;BME280_pressure;Samples;Min_cycle;Max_cycle;Signal;HPM_P1;HPM_P2
2021/11/20 10:30:29;;;;;;;6.53;4.10;;;;;;;10.14;89.17;99912.66;5169387;27;20566;-80
2021/11/20 10:32:59;;;;;;;7.33;4.10;;;;;;;10.69;87.51;99910.22;5150142;27;39883;-78
2021/11/20 10:35:31;;;;;;;7.17;5.20;;;;;;;11.23;84.62;99921.81;5132838;27;42018;-79
2021/11/20 10:38:07;;;;;;;6.97;5.17;;;;;;;11.56;81.79;99914.84;5150557;27;41997;-79
2021/11/20 10:40:41;;;;;;;7.00;4.80;;;;;;;11.87;80.26;99915.03;5157430;27;41149;-78
2021/11/20 10:43:18;;;;;;;6.83;4.37;;;;;;;12.13;78.78;99912.84;5150705;27;38782;-79
2021/11/20 10:45:53;;;;;;;7.57;4.60;;;;;;;12.35;77.26;99904.63;5150863;27;41006;-79
2021/11/20 10:48:34;;;;;;;8.63;4.63;;;;;;;12.46;76.66;99892.50;5167876;27;42906;-79
2021/11/20 10:51:33;;;;;;;8.00;4.57;;;;;;;12.69;75.78;99907.19;5133002;27;41202;-79
2021/11/20 10:54:32;;;;;;;9.90;4.30;;;;;;;12.82;74.18;99896.75;5134881;27;39514;-80
2021/11/20 10:57:05;;;;;;;6.33;4.63;;;;;;;12.95;73.94;99896.00;5119225;27;40378;-80
2021/11/20 10:59:55;;;;;;;8.20;4.30;;;;;;;13.06;73.78;99890.06;5168628;27;46356;-80
2021/11/20 11:02:47;;;;;;;5.70;3.60;;;;;;;13.13;72.70;99894.09;5122385;27;42197;-80
2021/11/20 11:05:30;;;;;;;6.60;3.70;;;;;;;13.22;72.40;99888.28;5149925;27;39042;-79
2021/11/20 11:08:06;;;;;;;5.57;4.00;;;;;;;13.33;72.54;99879.69;5157998;27;43029;-80
2021/11/20 11:10:40;;;;;;;7.67;4.20;;;;;;;13.23;71.19;99852.75;5133893;27;42025;-79
2021/11/20 11:13:10;;;;;;;6.77;4.53;;;;;;;13.30;70.73;99855.94;5132033;27;42095;-80
2021/11/20 11:15:56;;;;;;;5.67;4.37;;;;;;;13.43;71.08;99866.72;5133088;27;39946;-79
2021/11/20 11:18:42;;;;;;;6.43;3.80;;;;;;;13.57;70.44;99866.78;5134301;27;40893;-79
2021/11/20 11:21:39;;;;;;;6.53;4.17;;;;;;;13.64;69.77;99852.13;5149426;27;42773;-81
2021/11/20 11:24:53;;;;;;;5.87;3.93;;;;;;;13.74;70.20;99850.63;5149489;27;41129;-81
2021/11/20 11:27:24;;;;;;;7.60;4.30;;;;;;;13.80;69.31;99847.63;5149600;27;39426;-80
2021/11/20 11:30:02;;;;;;;6.83;4.47;;;;;;;13.79;68.78;99837.94;5149508;27;42657;-80
2021/11/20 11:32:33;;;;;;;6.97;4.73;;;;;;;13.76;69.02;99824.78;5150357;27;41717;-79
2021/11/20 11:35:10;;;;;;;6.90;3.83;;;;;;;13.88;68.82;99823.19;5149959;27;43111;-80
2021/11/20 11:37:44;;;;;;;5.27;3.67;;;;;;;13.81;68.67;99798.75;5168698;27;39889;-78
2021/11/20 11:40:20;;;;;;;7.57;4.03;;;;;;;13.93;68.02;99806.00;5143837;27;40602;-78
2021/11/20 11:42:55;;;;;;;5.43;3.87;;;;;;;14.01;68.16;99793.06;5136291;27;41999;-79
2021/11/20 11:46:02;;;;;;;4.70;3.50;;;;;;;14.19;67.67;99808.88;5134746;27;42367;-80
2021/11/20 11:48:54;;;;;;;6.03;3.90;;;;;;;14.24;67.07;99790.75;5134648;27;40897;-81
2021/11/20 11:51:35;;;;;;;6.37;4.33;;;;;;;14.18;67.03;99776.03;5152479;27;41747;-79
2021/11/20 11:54:10;;;;;;;7.53;4.93;;;;;;;14.28;66.53;99782.50;5135456;27;42003;-79
2021/11/20 11:56:40;;;;;;;5.73;4.10;;;;;;;14.27;66.65;99775.44;5152791;27;42784;-81
2021/11/20 11:59:21;;;;;;;6.17;4.37;;;;;;;14.22;66.46;99758.03;5153075;27;41099;-80
2021/11/20 12:02:02;;;;;;;6.10;4.20;;;;;;;14.29;65.68;99773.56;5119325;27;41159;-78
2021/11/20 12:04:38;;;;;;;7.97;4.37;;;;;;;14.28;65.57;99765.66;5117400;27;41806;-79
2021/11/20 12:07:45;;;;;;;5.57;3.43;;;;;;;14.33;66.25;99766.22;5117833;27;42339;-78
2021/11/20 12:10:37;;;;;;;5.10;3.43;;;;;;;14.39;66.08;99763.16;5146546;27;39340;-79
2021/11/20 12:13:10;;;;;;;7.67;5.23;;;;;;;14.37;64.69;99763.25;5153380;27;41774;-79
2021/11/20 12:15:46;;;;;;;7.53;4.37;;;;;;;14.37;65.38;99754.41;5152990;27;42743;-79
2021/11/20 12:18:23;;;;;;;6.27;4.50;;;;;;;14.44;65.26;99749.59;5147151;27;41283;-80
2021/11/20 12:20:57;;;;;;;7.17;4.57;;;;;;;14.43;64.72;99740.72;5134783;27;40316;-79
2021/11/20 12:23:37;;;;;;;4.87;3.50;;;;;;;14.46;63.95;99743.22;5135137;27;41797;-79
2021/11/20 12:26:17;;;;;;;4.53;4.00;;;;;;;14.51;63.53;99742.88;5152732;27;43843;-79
2021/11/20 12:29:05;;;;;;;5.63;3.77;;;;;;;14.56;63.33;99733.66;5133708;27;42488;-79
2021/11/20 12:32:19;;;;;;;7.47;3.77;;;;;;;14.56;62.77;99731.00;5117425;27;38929;-79
2021/11/20 12:35:03;;;;;;;4.60;3.97;;;;;;;14.50;63.39;99710.03;5118960;27;41775;-79
2021/11/20 12:37:42;;;;;;;3.90;3.17;;;;;;;14.62;62.64;99713.72;5122586;27;42825;-79
2021/11/20 12:40:39;;;;;;;4.30;3.40;;;;;;;14.60;62.57;99716.47;5152236;27;42483;-79
2021/11/20 12:43:20;;;;;;;4.87;3.00;;;;;;;14.53;61.42;99727.66;5151239;27;41032;-79
2021/11/20 12:46:05;;;;;;;4.23;3.00;;;;;;;14.45;61.79;99717.50;5134794;27;40616;-79
2021/11/20 12:48:49;;;;;;;5.73;3.57;;;;;;;14.37;60.93;99712.63;5130061;27;41884;-79
2021/11/20 12:51:28;;;;;;;4.70;2.90;;;;;;;14.31;61.59;99709.50;5151762;27;43136;-79
2021/11/20 12:54:00;;;;;;;4.77;3.47;;;;;;;14.20;61.22;99685.38;5149732;27;39910;-78
2021/11/20 12:56:36;;;;;;;4.97;3.30;;;;;;;14.14;61.40;99691.91;5152676;27;41704;-79
2021/11/20 12:59:17;;;;;;;5.03;3.63;;;;;;;14.19;61.71;99699.63;5134370;27;41914;-79
2021/11/20 13:01:56;;;;;;;6.47;4.23;;;;;;;14.01;60.99;99680.34;5134227;27;41265;-78
2021/11/20 13:04:28;;;;;;;6.37;3.73;;;;;;;14.05;61.21;99694.31;5148853;27;40809;-79
2021/11/20 13:07:00;;;;;;;5.10;3.70;;;;;;;14.01;61.32;99681.19;5151058;27;40382;-79
2021/11/20 13:09:33;;;;;;;4.83;3.83;;;;;;;13.97;62.21;99669.00;5145200;27;42820;-79
2021/11/20 13:12:06;;;;;;;6.17;3.97;;;;;;;13.98;62.26;99660.06;5152287;27;42230;-79
2021/11/20 13:15:00;;;;;;;4.93;3.60;;;;;;;13.94;62.92;99653.25;5151803;27;40130;-78
2021/11/20 13:17:30;;;;;;;5.47;3.80;;;;;;;13.92;62.81;99652.50;5144361;27;41550;-79
2021/11/20 13:20:09;;;;;;;4.63;3.63;;;;;;;13.86;60.67;99652.84;5134144;27;41392;-79
2021/11/20 13:22:39;;;;;;;7.27;4.10;;;;;;;13.73;60.13;99649.25;5148671;27;43096;-79
2021/11/20 13:25:13;;;;;;;4.67;3.27;;;;;;;13.71;60.40;99651.19;5115077;27;38984;-79
2021/11/20 13:27:57;;;;;;;3.67;2.80;;;;;;;13.69;61.18;99646.91;5132171;27;40608;-79
2021/11/20 13:30:29;;;;;;;4.77;3.43;;;;;;;13.66;60.00;99640.81;5130322;27;43790;-79
2021/11/20 13:33:00;;;;;;;4.97;3.33;;;;;;;13.63;59.83;99648.13;5133019;27;42265;-79
2021/11/20 13:35:29;;;;;;;5.87;3.50;;;;;;;13.63;60.46;99638.34;5112883;27;39979;-80
2021/11/20 13:38:00;;;;;;;3.93;2.90;;;;;;;13.60;60.06;99632.34;5134171;27;40767;-78
2021/11/20 13:40:30;;;;;;;4.30;3.40;;;;;;;13.59;60.75;99630.66;5151461;27;42907;-80
2021/11/20 13:43:00;;;;;;;4.93;3.57;;;;;;;13.60;60.62;99625.22;5117900;27;41120;-79
2021/11/20 13:45:30;;;;;;;3.13;2.83;;;;;;;13.56;60.23;99630.84;5116393;27;39793;-79
2021/11/20 13:47:58;;;;;;;5.23;4.20;;;;;;;13.53;59.36;99631.03;5152701;27;42655;-79
2021/11/20 13:50:38;;;;;;;4.93;3.47;;;;;;;13.43;59.34;99624.56;5113371;27;43104;-79
2021/11/20 13:53:07;;;;;;;5.20;3.90;;;;;;;13.21;59.53;99599.31;5131119;27;42880;-79
2021/11/20 13:55:35;;;;;;;5.20;3.77;;;;;;;13.30;59.99;99609.38;5115955;27;40190;-79
2021/11/20 13:58:04;;;;;;;4.10;3.33;;;;;;;13.29;59.96;99605.00;5133243;27;42704;-79
2021/11/20 14:00:32;;;;;;;5.40;3.40;;;;;;;13.29;60.23;99596.16;5115669;27;41895;-79
2021/11/20 14:02:59;;;;;;;4.83;3.60;;;;;;;13.32;60.68;99600.44;5113540;27;42125;-79
2021/11/20 14:05:27;;;;;;;5.20;3.23;;;;;;;13.32;60.43;99592.47;5112927;27;39030;-79
2021/11/20 14:08:04;;;;;;;3.40;3.07;;;;;;;13.28;60.08;99605.94;5115978;27;40540;-80
2021/11/20 14:10:35;;;;;;;5.30;3.77;;;;;;;13.20;59.11;99602.91;5129067;27;43718;-79
2021/11/20 14:13:07;;;;;;;4.87;3.77;;;;;;;13.13;59.26;99608.66;5125888;27;42000;-78
2021/11/20 14:15:46;;;;;;;3.57;3.00;;;;;;;13.09;59.98;99597.34;5115720;27;38993;-80
2021/11/20 14:18:14;;;;;;;5.20;3.83;;;;;;;13.10;60.01;99598.22;5127492;27;41009;-79
2021/11/20 14:20:44;;;;;;;4.83;3.83;;;;;;;13.05;59.30;99592.31;5144341;27;43555;-78
2021/11/20 14:23:15;;;;;;;5.00;3.40;;;;;;;13.01;59.51;99585.47;5129960;27;41810;-78
2021/11/20 14:25:43;;;;;;;4.53;2.93;;;;;;;12.98;60.08;99578.53;5150257;27;40034;-80
2021/11/20 14:28:12;;;;;;;5.83;3.77;;;;;;;12.93;59.71;99577.97;5128852;27;42752;-79
2021/11/20 14:30:43;;;;;;;5.20;3.93;;;;;;;12.87;59.78;99578.31;5127050;27;43669;-79
2021/11/20 14:33:17;;;;;;;4.47;3.17;;;;;;;12.76;59.90;99559.50;5133479;27;41161;-78
2021/11/20 14:35:52;;;;;;;5.33;3.30;;;;;;;12.77;60.69;99567.38;5132016;27;39872;-79
2021/11/20 14:38:20;;;;;;;4.70;3.63;;;;;;;12.74;60.55;99564.03;5130276;27;40720;-79
2021/11/20 14:40:49;;;;;;;5.37;3.60;;;;;;;12.68;60.34;99572.41;5150141;27;42990;-79
2021/11/20 14:43:23;;;;;;;5.60;3.63;;;;;;;12.62;60.15;99551.50;5147714;27;42993;-79
2021/11/20 14:45:52;;;;;;;4.93;3.63;;;;;;;12.55;60.60;99556.34;5132365;27;39022;-79
2021/11/20 14:48:22;;;;;;;4.77;3.87;;;;;;;12.50;60.75;99564.56;5131578;27;41874;-80
2021/11/20 14:50:52;;;;;;;3.77;3.10;;;;;;;12.42;60.76;99550.88;5149686;27;43061;-79
2021/11/20 14:53:24;;;;;;;5.73;3.77;;;;;;;12.39;61.04;99555.50;5132133;27;41157;-78
2021/11/20 14:55:54;;;;;;;4.90;3.77;;;;;;;12.29;61.15;99539.28;5130123;27;40009;-79
2021/11/20 14:58:24;;;;;;;6.80;4.03;;;;;;;12.23;61.24;99543.16;5132351;27;41035;-80
2021/11/20 15:00:54;;;;;;;3.60;2.83;;;;;;;12.17;61.01;99537.34;5148499;27;43752;-80
2021/11/20 15:03:22;;;;;;;4.33;3.23;;;;;;;12.13;61.05;99538.44;5132621;27;43608;-80
2021/11/20 15:05:50;;;;;;;5.00;3.37;;;;;;;12.07;61.22;99533.50;5132673;27;38673;-80
2021/11/20 15:08:18;;;;;;;5.10;3.70;;;;;;;11.99;61.51;99523.31;5148473;27;42512;-80
2021/11/20 15:10:47;;;;;;;4.07;3.00;;;;;;;11.97;60.96;99527.03;5130497;27;42476;-79
2021/11/20 15:13:14;;;;;;;3.47;3.17;;;;;;;11.79;61.34;99519.16;5131716;27;43085;-80
2021/11/20 15:15:44;;;;;;;3.30;3.00;;;;;;;11.85;61.81;99518.81;5132084;27;39896;-80
2021/11/20 15:18:11;;;;;;;4.53;3.47;;;;;;;11.85;62.09;99524.13;5135165;27;41676;-79
2021/11/20 15:20:40;;;;;;;4.27;3.47;;;;;;;11.78;62.01;99516.59;5118259;27;41637;-79
2021/11/20 15:23:08;;;;;;;4.37;3.53;;;;;;;11.82;62.03;99519.00;5137043;27;42240;-80
2021/11/20 15:25:36;;;;;;;5.17;3.67;;;;;;;11.80;62.11;99517.34;5135176;27;40950;-79
2021/11/20 15:28:04;;;;;;;4.50;3.47;;;;;;;11.76;62.31;99514.00;5135658;27;41940;-79
2021/11/20 15:30:32;;;;;;;4.63;3.77;;;;;;;11.75;62.49;99507.00;5134231;27;42087;-80
2021/11/20 15:33:02;;;;;;;3.90;2.83;;;;;;;11.73;62.97;99506.22;5152566;27;42685;-80
2021/11/20 15:35:31;;;;;;;4.83;3.07;;;;;;;11.73;63.07;99510.66;5153437;27;40035;-80
2021/11/20 15:37:59;;;;;;;5.60;3.47;;;;;;;11.68;62.53;99499.44;5154309;27;42786;-80
2021/11/20 15:40:27;;;;;;;4.33;3.40;;;;;;;11.62;62.72;99500.63;5121682;27;41806;-80
2021/11/20 15:42:55;;;;;;;4.97;3.67;;;;;;;11.55;62.99;99493.97;5136276;27;40965;-80
2021/11/20 15:45:22;;;;;;;3.90;3.10;;;;;;;11.59;62.86;99497.31;5106817;27;39031;-81
2021/11/20 15:47:50;;;;;;;3.87;3.37;;;;;;;11.55;62.62;99498.44;5119052;27;41668;-81
2021/11/20 15:50:20;;;;;;;5.63;4.13;;;;;;;11.52;62.96;99496.78;5134068;27;42975;-80
2021/11/20 15:52:49;;;;;;;6.53;4.10;;;;;;;11.50;63.21;99491.56;5135175;27;42353;-80
2021/11/20 15:55:18;;;;;;;3.57;2.90;;;;;;;11.49;63.39;99497.00;5116367;27;38901;-78
2021/11/20 15:57:46;;;;;;;3.83;3.07;;;;;;;11.47;63.19;99496.22;5153694;27;42990;-81
2021/11/20 16:00:16;;;;;;;3.70;3.23;;;;;;;11.45;62.89;99490.13;5118192;27;43210;-80
2021/11/20 16:02:45;;;;;;;3.77;2.90;;;;;;;11.42;62.65;99487.66;5118204;27;43472;-81
2021/11/20 16:05:14;;;;;;;4.33;3.10;;;;;;;11.40;63.17;99481.56;5135814;27;38675;-81
2021/11/20 16:07:43;;;;;;;3.33;2.93;;;;;;;11.37;63.33;99479.09;5154631;27;41842;-81
2021/11/20 16:10:11;;;;;;;3.37;2.67;;;;;;;11.35;63.28;99470.38;5134737;27;41950;-80
2021/11/20 16:12:39;;;;;;;5.70;3.20;;;;;;;11.34;63.47;99473.97;5136141;27;41063;-81
